createdAt,value
2017-10-28T00:01:22.137Z,4.13
2017-10-28T00:04:44.902Z,3.53
2017-10-28T00:08:02.568Z,3.77
2017-10-28T00:11:13.404Z,3.77
2017-10-28T00:14:24.061Z,3.93
2017-10-28T00:17:33.773Z,4.60
2017-10-28T00:20:38.500Z,3.60
2017-10-28T00:23:47.155Z,4.50
2017-10-28T00:26:54.049Z,4.60
2017-10-28T00:29:59.876Z,3.60
2017-10-28T00:33:10.575Z,3.23
2017-10-28T00:36:22.581Z,3.40
2017-10-28T00:43:03.924Z,3.70
2017-10-28T00:46:10.720Z,4.07
2017-10-28T00:49:26.658Z,4.30
2017-10-28T00:52:32.149Z,3.43
2017-10-28T00:55:40.160Z,3.40
2017-10-28T00:58:47.853Z,2.87
2017-10-28T01:02:02.615Z,3.93
2017-10-28T01:05:10.177Z,4.03
2017-10-28T01:08:17.083Z,3.67
2017-10-28T01:11:43.049Z,3.63
2017-10-28T01:15:04.873Z,3.23
2017-10-28T01:18:18.656Z,3.23
2017-10-28T01:21:23.361Z,3.00
2017-10-28T01:24:36.030Z,3.77
2017-10-28T01:27:42.813Z,3.10
2017-10-28T01:30:49.391Z,3.77
2017-10-28T01:33:55.013Z,3.53
2017-10-28T01:37:05.697Z,3.50
2017-10-28T01:40:11.771Z,3.30
2017-10-28T01:43:22.425Z,3.10
2017-10-28T01:46:27.968Z,2.67
2017-10-28T01:49:35.518Z,2.90
2017-10-28T01:52:45.480Z,2.57
2017-10-28T01:55:57.059Z,2.87
2017-10-28T01:59:01.634Z,3.00
2017-10-28T02:02:07.384Z,2.80
2017-10-28T02:05:15.137Z,2.40
2017-10-28T02:08:24.818Z,3.10
2017-10-28T02:11:36.577Z,3.60
2017-10-28T02:14:44.256Z,3.07
2017-10-28T02:17:52.085Z,3.30
2017-10-28T02:21:15.025Z,3.50
2017-10-28T02:24:21.573Z,3.60
2017-10-28T02:27:28.296Z,3.87
2017-10-28T02:30:33.917Z,3.30
2017-10-28T02:33:55.635Z,3.30
2017-10-28T02:37:08.374Z,3.53
2017-10-28T02:40:15.041Z,2.90
2017-10-28T02:43:28.015Z,2.30
2017-10-28T02:46:33.685Z,2.60
2017-10-28T02:49:44.511Z,3.00
2017-10-28T02:52:52.435Z,2.70
2017-10-28T02:55:57.107Z,2.83
2017-10-28T02:59:02.523Z,2.90
2017-10-28T03:02:10.330Z,2.37
2017-10-28T03:05:21.952Z,2.47
2017-10-28T03:08:28.895Z,2.23
2017-10-28T03:11:38.660Z,2.80
2017-10-28T03:14:47.504Z,2.60
2017-10-28T03:17:53.429Z,3.10
2017-10-28T03:20:59.915Z,2.40
2017-10-28T03:24:08.697Z,2.73
2017-10-28T03:27:16.595Z,2.50
2017-10-28T03:30:28.463Z,3.20
2017-10-28T03:33:33.880Z,2.30
2017-10-28T03:36:52.680Z,2.70
2017-10-28T03:40:03.509Z,2.70
2017-10-28T03:43:09.082Z,2.90
2017-10-28T03:46:17.916Z,3.10
2017-10-28T03:49:27.809Z,3.23
2017-10-28T03:52:38.685Z,3.70
2017-10-28T03:55:43.456Z,3.90
2017-10-28T03:58:54.296Z,3.37
2017-10-28T04:02:02.983Z,4.13
2017-10-28T04:05:08.915Z,3.13
2017-10-28T04:08:23.674Z,3.40
2017-10-28T04:11:34.304Z,3.20
2017-10-28T04:14:44.164Z,4.00
2017-10-28T04:17:56.748Z,4.83
2017-10-28T04:21:14.588Z,3.53
2017-10-28T04:24:26.337Z,3.50
2017-10-28T04:27:35.007Z,4.40
2017-10-28T04:30:52.667Z,4.17
2017-10-28T04:34:04.412Z,3.60
2017-10-28T04:37:12.922Z,3.97
2017-10-28T04:40:30.744Z,3.57
2017-10-28T04:43:40.486Z,3.33
2017-10-28T04:46:46.112Z,3.93
2017-10-28T04:49:57.024Z,3.77
2017-10-28T04:53:18.996Z,3.70
2017-10-28T04:56:28.877Z,3.50
2017-10-28T04:59:33.880Z,3.80
2017-10-28T05:02:44.736Z,3.90
2017-10-28T05:05:55.637Z,4.90
2017-10-28T05:09:01.093Z,4.40
2017-10-28T05:12:09.861Z,3.80
2017-10-28T05:15:27.645Z,4.50
2017-10-28T05:18:50.268Z,4.90
2017-10-28T05:21:55.897Z,5.03
2017-10-28T05:25:01.654Z,4.90
2017-10-28T05:28:07.832Z,5.07
2017-10-28T05:31:17.605Z,5.47
2017-10-28T05:34:23.306Z,6.00
2017-10-28T05:37:35.388Z,5.03
2017-10-28T05:40:40.157Z,5.93
2017-10-28T05:43:46.956Z,5.53
2017-10-28T05:46:54.680Z,4.87
2017-10-28T05:50:00.307Z,5.50
2017-10-28T05:53:14.064Z,4.90
2017-10-28T05:56:43.031Z,5.70
2017-10-28T05:59:57.561Z,4.60
2017-10-28T06:03:05.099Z,6.03
2017-10-28T06:06:11.936Z,5.70
2017-10-28T06:09:24.659Z,5.83
2017-10-28T06:12:50.509Z,5.57
2017-10-28T06:16:04.406Z,5.20
2017-10-28T06:19:15.104Z,5.43
2017-10-28T06:22:32.081Z,5.50
2017-10-28T06:25:40.711Z,5.80
2017-10-28T06:28:48.648Z,5.47
2017-10-28T06:31:56.550Z,5.87
2017-10-28T06:35:01.348Z,6.57
2017-10-28T06:38:06.817Z,5.80
2017-10-28T06:41:12.588Z,5.10
2017-10-28T06:44:18.043Z,5.40
2017-10-28T06:47:33.916Z,6.57
2017-10-28T06:50:39.626Z,8.70
2017-10-28T06:53:52.631Z,7.33
2017-10-28T06:57:01.194Z,7.27
2017-10-28T07:00:09.332Z,7.47
2017-10-28T07:03:37.226Z,7.27
2017-10-28T07:06:45.089Z,6.37
2017-10-28T07:09:57.082Z,7.10
2017-10-28T07:13:02.884Z,8.40
2017-10-28T07:16:08.734Z,7.70
2017-10-28T07:19:20.544Z,8.10
2017-10-28T07:22:35.425Z,7.40
2017-10-28T07:25:49.062Z,9.83
2017-10-28T07:28:55.919Z,11.97
2017-10-28T07:32:00.779Z,9.33
2017-10-28T07:35:05.926Z,11.00
2017-10-28T07:38:13.496Z,10.40
2017-10-28T07:41:18.357Z,10.83
2017-10-28T07:44:28.941Z,9.97
2017-10-28T07:47:37.785Z,10.33
2017-10-28T07:50:44.388Z,9.63
2017-10-28T07:53:49.790Z,9.60
2017-10-28T07:57:04.336Z,10.17
2017-10-28T08:00:10.993Z,9.73
2017-10-28T08:03:17.676Z,9.90
2017-10-28T08:06:22.412Z,9.93
2017-10-28T08:09:45.092Z,9.13
2017-10-28T08:12:53.622Z,9.30
2017-10-28T08:16:00.154Z,9.40
2017-10-28T08:19:05.754Z,9.97
2017-10-28T08:22:11.366Z,10.27
2017-10-28T08:25:17.083Z,9.30
2017-10-28T08:28:23.697Z,8.60
2017-10-28T08:31:31.620Z,9.87
2017-10-28T08:34:37.377Z,8.90
2017-10-28T08:37:43.136Z,6.60
2017-10-28T08:40:53.777Z,5.80
2017-10-28T08:44:00.756Z,6.23
2017-10-28T08:47:06.656Z,6.77
2017-10-28T08:50:12.092Z,5.17
2017-10-28T08:53:16.919Z,5.40
2017-10-28T08:56:22.604Z,4.90
2017-10-28T08:59:28.180Z,5.10
2017-10-28T09:02:45.885Z,5.40
2017-10-28T09:05:51.567Z,4.20
2017-10-28T09:08:57.297Z,4.87
2017-10-28T09:12:05.133Z,4.87
2017-10-28T09:15:10.802Z,6.03
2017-10-28T09:18:23.416Z,5.33
2017-10-28T09:21:29.031Z,5.50
2017-10-28T09:24:39.584Z,5.20
2017-10-28T09:27:47.363Z,4.90
2017-10-28T09:31:01.217Z,5.17
2017-10-28T09:34:06.647Z,4.73
2017-10-28T09:37:20.292Z,3.40
2017-10-28T09:40:25.866Z,3.03
2017-10-28T09:43:33.269Z,2.93
2017-10-28T09:46:38.894Z,2.43
2017-10-28T09:49:52.258Z,2.90
2017-10-28T09:52:57.869Z,2.50
2017-10-28T09:56:10.514Z,3.53
2017-10-28T09:59:15.385Z,3.53
2017-10-28T10:02:22.060Z,3.93
2017-10-28T10:05:26.860Z,3.20
2017-10-28T10:08:35.465Z,4.00
2017-10-28T10:11:42.095Z,3.80
2017-10-28T10:14:53.773Z,2.87
2017-10-28T10:17:58.760Z,4.10
2017-10-28T10:21:07.180Z,4.60
2017-10-28T10:24:11.786Z,2.90
2017-10-28T10:27:18.349Z,3.20
2017-10-28T10:30:27.030Z,2.77
2017-10-28T10:33:39.883Z,3.10
2017-10-28T10:36:48.601Z,2.60
2017-10-28T10:39:56.391Z,2.60
2017-10-28T10:43:03.062Z,3.60
2017-10-28T10:46:09.737Z,3.00
2017-10-28T10:49:15.240Z,3.00
2017-10-28T10:52:20.913Z,2.90
2017-10-28T10:55:36.564Z,3.87
2017-10-28T10:58:42.128Z,3.10
2017-10-28T11:01:48.584Z,3.53
2017-10-28T11:04:53.314Z,2.60
2017-10-28T11:08:04.106Z,3.03
2017-10-28T11:11:15.741Z,2.43
2017-10-28T11:14:26.453Z,2.97
2017-10-28T11:17:32.089Z,3.07
2017-10-28T11:20:50.720Z,2.80
2017-10-28T11:23:57.210Z,2.67
2017-10-28T11:27:09.770Z,2.30
2017-10-28T11:30:16.186Z,2.43
2017-10-28T11:33:22.876Z,2.73
2017-10-28T11:36:27.476Z,2.87
2017-10-28T11:39:32.069Z,2.40
2017-10-28T11:42:37.710Z,2.50
2017-10-28T11:45:45.342Z,2.90
2017-10-28T11:48:51.036Z,2.80
2017-10-28T11:51:56.544Z,2.23
2017-10-28T11:55:03.928Z,2.73
2017-10-28T11:58:09.879Z,2.50
2017-10-28T12:01:16.609Z,2.03
2017-10-28T12:04:25.131Z,2.70
2017-10-28T12:07:30.820Z,2.87
2017-10-28T12:10:37.523Z,2.07
2017-10-28T12:13:44.082Z,2.50
2017-10-28T12:16:48.861Z,2.53
2017-10-28T12:19:56.589Z,2.83
2017-10-28T12:23:02.966Z,2.73
2017-10-28T12:26:09.361Z,3.17
2017-10-28T12:29:16.171Z,1.90
2017-10-28T12:32:20.760Z,2.47
2017-10-28T12:35:28.413Z,2.43
2017-10-28T12:38:33.283Z,2.20
2017-10-28T12:41:38.937Z,2.97
2017-10-28T12:44:45.470Z,2.00
2017-10-28T12:47:51.340Z,2.77
2017-10-28T12:50:57.863Z,2.27
2017-10-28T12:54:04.403Z,3.00
2017-10-28T12:57:10.119Z,3.03
2017-10-28T13:00:15.728Z,2.70
2017-10-28T13:03:23.394Z,2.43
2017-10-28T13:06:41.165Z,2.30
2017-10-28T13:09:45.812Z,2.50
2017-10-28T13:12:52.595Z,2.67
2017-10-28T13:15:57.989Z,2.80
2017-10-28T13:19:02.626Z,2.43
2017-10-28T13:22:11.129Z,2.67
2017-10-28T13:25:16.005Z,2.60
2017-10-28T13:28:24.750Z,3.20
2017-10-28T13:31:29.538Z,2.50
2017-10-28T13:34:35.996Z,2.30
2017-10-28T13:37:44.608Z,2.83
2017-10-28T13:40:50.289Z,2.90
2017-10-28T13:43:56.160Z,3.63
2017-10-28T13:47:03.553Z,3.50
2017-10-28T13:50:17.361Z,3.10
2017-10-28T13:53:21.977Z,3.20
2017-10-28T13:56:28.846Z,3.60
2017-10-28T13:59:34.420Z,2.60
2017-10-28T14:02:43.014Z,2.90
2017-10-28T14:05:53.752Z,2.80
2017-10-28T14:09:00.337Z,2.90
2017-10-28T14:12:05.220Z,3.53
2017-10-28T14:15:12.046Z,2.50
2017-10-28T14:18:16.837Z,2.90
2017-10-28T14:21:23.230Z,2.27
2017-10-28T14:24:33.040Z,2.90
2017-10-28T14:27:40.473Z,1.90
2017-10-28T14:30:45.165Z,2.53
2017-10-28T14:33:55.989Z,3.00
2017-10-28T14:37:04.670Z,3.13
2017-10-28T14:40:12.373Z,2.63
2017-10-28T14:43:17.932Z,2.00
2017-10-28T14:46:24.596Z,3.13
2017-10-28T14:49:30.222Z,3.30
2017-10-28T14:52:44.408Z,2.53
2017-10-28T14:55:50.860Z,2.87
2017-10-28T14:59:01.729Z,2.57
2017-10-28T15:02:19.620Z,1.50
2017-10-28T15:09:00.306Z,2.60
2017-10-28T15:12:14.881Z,2.30
2017-10-28T15:15:23.659Z,2.37
2017-10-28T15:18:29.259Z,2.73
2017-10-28T15:21:36.632Z,2.73
2017-10-28T15:24:42.452Z,2.60
2017-10-28T15:27:48.105Z,2.53
2017-10-28T15:30:53.814Z,2.33
2017-10-28T15:34:00.144Z,2.53
2017-10-28T15:37:04.847Z,2.40
2017-10-28T15:40:10.702Z,2.90
2017-10-28T15:43:21.343Z,2.43
2017-10-28T15:46:26.777Z,2.50
2017-10-28T15:49:33.494Z,2.77
2017-10-28T15:52:43.987Z,2.40
2017-10-28T15:55:49.740Z,2.20
2017-10-28T15:59:11.769Z,2.40
2017-10-28T16:02:17.328Z,2.70
2017-10-28T16:05:24.006Z,2.20
2017-10-28T16:08:36.989Z,2.87
2017-10-28T16:11:42.536Z,2.80
2017-10-28T16:14:47.203Z,3.10
2017-10-28T16:17:52.742Z,3.10
2017-10-28T16:20:58.499Z,3.30
2017-10-28T16:24:03.981Z,2.67
2017-10-28T16:27:12.674Z,2.90
2017-10-28T16:30:17.148Z,3.70
2017-10-28T16:33:21.866Z,3.63
2017-10-28T16:36:28.479Z,3.00
2017-10-28T16:39:40.100Z,4.47
2017-10-28T16:42:54.904Z,3.43
2017-10-28T16:46:06.652Z,4.03
2017-10-28T16:49:13.104Z,3.20
2017-10-28T16:52:24.952Z,3.50
2017-10-28T16:55:29.590Z,3.27
2017-10-28T16:58:36.344Z,3.23
2017-10-28T17:01:53.104Z,3.87
2017-10-28T17:04:59.868Z,3.50
2017-10-28T17:08:05.436Z,3.37
2017-10-28T17:11:14.993Z,3.73
2017-10-28T17:14:29.666Z,3.00
2017-10-28T17:17:43.349Z,3.90
2017-10-28T17:20:59.800Z,3.50
2017-10-28T17:24:08.679Z,3.67
2017-10-28T17:27:15.393Z,3.87
2017-10-28T17:30:23.221Z,2.40
2017-10-28T17:33:28.937Z,3.20
2017-10-28T17:36:33.633Z,3.93
2017-10-28T17:39:41.028Z,3.37
2017-10-28T17:42:46.615Z,6.40
2017-10-28T17:45:52.139Z,3.33
2017-10-28T17:48:59.747Z,3.60
2017-10-28T17:52:04.430Z,3.70
2017-10-28T17:55:15.017Z,4.50
2017-10-28T17:58:20.792Z,4.70
2017-10-28T18:01:31.587Z,4.30
2017-10-28T18:04:37.391Z,4.37
2017-10-28T18:07:42.659Z,3.67
2017-10-28T18:10:49.374Z,3.20
2017-10-28T18:13:54.941Z,4.03
2017-10-28T18:17:06.593Z,4.13
2017-10-28T18:20:12.144Z,3.70
2017-10-28T18:23:16.851Z,3.53
2017-10-28T18:26:23.814Z,3.60
2017-10-28T18:29:30.115Z,3.43
2017-10-28T18:32:35.893Z,3.50
2017-10-28T18:35:40.512Z,3.43
2017-10-28T18:38:45.746Z,3.07
2017-10-28T18:41:51.489Z,3.90
2017-10-28T18:44:59.020Z,4.13
2017-10-28T18:48:10.969Z,3.97
2017-10-28T18:51:16.664Z,3.70
2017-10-28T18:54:22.260Z,3.33
2017-10-28T18:57:27.866Z,3.80
2017-10-28T19:00:32.722Z,5.13
2017-10-28T19:03:38.150Z,3.93
2017-10-28T19:06:46.731Z,3.50
2017-10-28T19:09:53.581Z,4.30
2017-10-28T19:12:59.695Z,4.83
2017-10-28T19:16:04.437Z,4.80
2017-10-28T19:19:11.823Z,4.20
2017-10-28T19:22:19.399Z,4.77
2017-10-28T19:25:27.765Z,4.30
2017-10-28T19:28:33.290Z,4.20
2017-10-28T19:31:38.889Z,4.80
2017-10-28T19:34:50.980Z,4.40
2017-10-28T19:37:55.497Z,4.30
2017-10-28T19:41:00.901Z,4.60
2017-10-28T19:44:06.872Z,3.90
2017-10-28T19:47:13.307Z,4.60
2017-10-28T19:50:18.882Z,5.10
2017-10-28T19:53:23.646Z,3.93
2017-10-28T19:56:34.475Z,4.30
2017-10-28T19:59:45.274Z,3.70
2017-10-28T20:02:49.941Z,3.63
2017-10-28T20:05:54.624Z,3.70
2017-10-28T20:08:59.276Z,4.40
2017-10-28T20:12:04.107Z,3.90
2017-10-28T20:15:11.044Z,3.90
2017-10-28T20:18:15.920Z,3.73
2017-10-28T20:21:20.889Z,4.07
2017-10-28T20:24:30.544Z,3.50
2017-10-28T20:27:37.240Z,5.07
2017-10-28T20:30:56.166Z,3.60
2017-10-28T20:34:02.928Z,4.17
2017-10-28T20:37:13.754Z,3.10
2017-10-28T20:40:22.444Z,4.07
2017-10-28T20:43:34.404Z,3.30
2017-10-28T20:46:44.227Z,3.70
2017-10-28T20:49:52.080Z,3.70
2017-10-28T20:53:02.872Z,4.50
2017-10-28T20:56:09.860Z,3.80
2017-10-28T20:59:14.602Z,3.63
2017-10-28T21:02:22.211Z,3.13
2017-10-28T21:05:33.849Z,3.37
2017-10-28T21:08:50.477Z,3.83
2017-10-28T21:12:03.515Z,3.10
2017-10-28T21:15:10.252Z,4.43
2017-10-28T21:18:25.897Z,3.37
2017-10-28T21:21:31.528Z,4.13
2017-10-28T21:24:37.101Z,3.80
2017-10-28T21:27:50.097Z,4.00
2017-10-28T21:30:58.835Z,3.90
2017-10-28T21:36:52.712Z,3.83
2017-10-28T21:39:59.416Z,3.67
2017-10-28T21:43:10.292Z,4.53
2017-10-28T21:46:15.944Z,3.90
2017-10-28T21:49:21.152Z,3.80
2017-10-28T21:52:28.634Z,3.97
2017-10-28T21:55:37.436Z,3.90
2017-10-28T21:58:48.152Z,3.50
2017-10-28T22:01:54.865Z,3.40
2017-10-28T22:05:02.654Z,3.87
2017-10-28T22:08:08.238Z,3.13
2017-10-28T22:11:26.993Z,4.17
2017-10-28T22:14:33.603Z,3.60
2017-10-28T22:17:39.291Z,3.80
2017-10-28T22:20:45.025Z,3.27
2017-10-28T22:23:58.777Z,3.60
2017-10-28T22:27:15.407Z,4.20
2017-10-28T22:30:20.384Z,4.23
2017-10-28T22:37:13.828Z,3.60
2017-10-28T22:40:19.344Z,4.30
2017-10-28T22:43:26.980Z,4.33
2017-10-28T22:46:34.506Z,4.00
2017-10-28T22:49:46.165Z,4.37
2017-10-28T22:52:52.841Z,3.57
2017-10-28T22:55:59.416Z,4.10
2017-10-28T22:59:04.251Z,4.67
2017-10-28T23:02:14.281Z,3.93
2017-10-28T23:05:21.005Z,3.70
2017-10-28T23:08:30.791Z,4.50
2017-10-28T23:11:38.493Z,3.50
2017-10-28T23:14:45.062Z,4.10
2017-10-28T23:17:59.972Z,4.53
2017-10-28T23:21:11.875Z,3.87
2017-10-28T23:24:22.653Z,3.50
2017-10-28T23:27:27.639Z,3.50
2017-10-28T23:30:32.217Z,4.60
2017-10-28T23:33:39.155Z,3.97
2017-10-28T23:36:52.956Z,4.23
2017-10-28T23:39:57.816Z,4.07
2017-10-28T23:43:08.942Z,4.00
2017-10-28T23:46:22.715Z,3.70
2017-10-28T23:49:27.533Z,4.20
2017-10-28T23:52:39.641Z,4.30
2017-10-28T23:55:50.262Z,3.60
2017-10-28T23:58:55.933Z,3.00
